Guantanamo, Guantanamo Mariana Grajales Airport (MUGM)

NameGuantanamo Mariana Grajales Airport
CityGuantanamo
CountryCuba
ICAOMUGM
IATANBW
Altitude17 m
CoordinatesGoogle Map
Live Air TrafficLiveATC.net
METARMUGM 190956Z 01007KT 9999 FEW025 SCT130 BKN280 26/25 A2996 RMK RAE16 SLP146 T2 SET P0000 T02560250
2019-08-19 09:56:00 Wind: North (10°) 3.6 m/s - Visibility: > 10000 m - Temperature: 26 °C - Dew point: 25 °C - Humidity: 94.2% - Pressure: 1014.56 hPa

Sorry, no flights used the airport in this database.